sensor_id;sensor_type;location;lat;lon;timestamp;P1;durP1;ratioP1;P2;durP2;ratioP2
22849;SDS011;11591;44.792;10.358;2022-12-15T00:01:06;37.03;;;17.38;;
22849;SDS011;11591;44.792;10.358;2022-12-15T00:03:51;35.90;;;16.88;;
22849;SDS011;11591;44.792;10.358;2022-12-15T00:06:35;41.88;;;17.63;;
22849;SDS011;11591;44.792;10.358;2022-12-15T00:09:20;39.83;;;17.27;;
22849;SDS011;11591;44.792;10.358;2022-12-15T00:12:04;40.72;;;18.40;;
22849;SDS011;11591;44.792;10.358;2022-12-15T00:14:48;50.47;;;21.05;;
22849;SDS011;11591;44.792;10.358;2022-12-15T00:17:33;43.67;;;20.00;;
22849;SDS011;11591;44.792;10.358;2022-12-15T00:20:17;45.55;;;19.70;;
22849;SDS011;11591;44.792;10.358;2022-12-15T00:23:08;43.83;;;18.92;;
22849;SDS011;11591;44.792;10.358;2022-12-15T00:25:54;50.40;;;22.13;;
22849;SDS011;11591;44.792;10.358;2022-12-15T00:28:38;45.80;;;20.65;;
22849;SDS011;11591;44.792;10.358;2022-12-15T00:31:23;53.42;;;21.50;;
22849;SDS011;11591;44.792;10.358;2022-12-15T00:34:08;50.47;;;20.70;;
22849;SDS011;11591;44.792;10.358;2022-12-15T00:36:53;44.83;;;21.60;;
22849;SDS011;11591;44.792;10.358;2022-12-15T00:39:37;49.45;;;19.60;;
22849;SDS011;11591;44.792;10.358;2022-12-15T00:42:04;50.25;;;21.70;;
22849;SDS011;11591;44.792;10.358;2022-12-15T00:44:33;46.33;;;21.52;;
22849;SDS011;11591;44.792;10.358;2022-12-15T00:46:59;45.13;;;20.65;;
22849;SDS011;11591;44.792;10.358;2022-12-15T00:49:26;49.15;;;21.73;;
22849;SDS011;11591;44.792;10.358;2022-12-15T00:52:13;43.28;;;20.35;;
22849;SDS011;11591;44.792;10.358;2022-12-15T00:54:58;44.28;;;20.60;;
22849;SDS011;11591;44.792;10.358;2022-12-15T00:57:43;54.10;;;23.27;;
22849;SDS011;11591;44.792;10.358;2022-12-15T01:00:28;52.83;;;21.02;;
22849;SDS011;11591;44.792;10.358;2022-12-15T01:03:13;45.13;;;21.02;;
22849;SDS011;11591;44.792;10.358;2022-12-15T01:06:06;52.10;;;22.70;;
22849;SDS011;11591;44.792;10.358;2022-12-15T01:08:51;61.67;;;23.17;;
22849;SDS011;11591;44.792;10.358;2022-12-15T01:11:36;54.58;;;22.85;;
22849;SDS011;11591;44.792;10.358;2022-12-15T01:14:20;51.92;;;22.80;;
22849;SDS011;11591;44.792;10.358;2022-12-15T01:17:05;49.90;;;21.45;;
22849;SDS011;11591;44.792;10.358;2022-12-15T01:19:49;45.88;;;20.17;;
22849;SDS011;11591;44.792;10.358;2022-12-15T01:22:35;42.80;;;19.65;;
22849;SDS011;11591;44.792;10.358;2022-12-15T01:25:02;40.72;;;18.90;;
22849;SDS011;11591;44.792;10.358;2022-12-15T01:27:29;42.05;;;18.33;;
22849;SDS011;11591;44.792;10.358;2022-12-15T01:29:54;39.78;;;19.27;;
22849;SDS011;11591;44.792;10.358;2022-12-15T01:32:20;35.88;;;16.58;;
22849;SDS011;11591;44.792;10.358;2022-12-15T01:34:46;36.00;;;16.17;;
22849;SDS011;11591;44.792;10.358;2022-12-15T01:37:12;41.05;;;18.20;;
22849;SDS011;11591;44.792;10.358;2022-12-15T01:39:37;33.60;;;16.92;;
22849;SDS011;11591;44.792;10.358;2022-12-15T01:42:22;36.72;;;15.98;;
22849;SDS011;11591;44.792;10.358;2022-12-15T01:44:49;33.00;;;16.13;;
22849;SDS011;11591;44.792;10.358;2022-12-15T01:47:16;35.78;;;16.17;;
22849;SDS011;11591;44.792;10.358;2022-12-15T01:49:45;33.78;;;15.32;;
22849;SDS011;11591;44.792;10.358;2022-12-15T01:52:12;32.83;;;15.02;;
22849;SDS011;11591;44.792;10.358;2022-12-15T01:54:41;31.63;;;15.30;;
22849;SDS011;11591;44.792;10.358;2022-12-15T01:57:18;30.88;;;14.63;;
22849;SDS011;11591;44.792;10.358;2022-12-15T01:59:54;31.40;;;15.43;;
22849;SDS011;11591;44.792;10.358;2022-12-15T02:02:27;28.40;;;14.15;;
22849;SDS011;11591;44.792;10.358;2022-12-15T02:04:55;27.25;;;13.57;;
22849;SDS011;11591;44.792;10.358;2022-12-15T02:07:22;29.60;;;13.52;;
22849;SDS011;11591;44.792;10.358;2022-12-15T02:09:48;31.30;;;13.90;;
22849;SDS011;11591;44.792;10.358;2022-12-15T02:15:24;27.00;;;12.43;;
22849;SDS011;11591;44.792;10.358;2022-12-15T02:23:34;26.80;;;12.45;;
22849;SDS011;11591;44.792;10.358;2022-12-15T02:31:48;25.65;;;13.15;;
22849;SDS011;11591;44.792;10.358;2022-12-15T02:37:11;22.13;;;11.77;;
22849;SDS011;11591;44.792;10.358;2022-12-15T02:39:44;28.60;;;12.75;;
22849;SDS011;11591;44.792;10.358;2022-12-15T02:42:10;27.88;;;12.35;;
22849;SDS011;11591;44.792;10.358;2022-12-15T02:44:37;26.77;;;11.90;;
22849;SDS011;11591;44.792;10.358;2022-12-15T02:55:19;24.98;;;11.10;;
22849;SDS011;11591;44.792;10.358;2022-12-15T03:00:40;24.08;;;11.02;;
22849;SDS011;11591;44.792;10.358;2022-12-15T03:03:10;22.95;;;11.13;;
22849;SDS011;11591;44.792;10.358;2022-12-15T03:05:45;24.70;;;10.18;;
22849;SDS011;11591;44.792;10.358;2022-12-15T03:08:17;25.73;;;10.57;;
22849;SDS011;11591;44.792;10.358;2022-12-15T03:10:45;22.35;;;11.02;;
22849;SDS011;11591;44.792;10.358;2022-12-15T03:13:15;24.50;;;10.43;;
22849;SDS011;11591;44.792;10.358;2022-12-15T03:15:41;22.75;;;10.70;;
22849;SDS011;11591;44.792;10.358;2022-12-15T03:18:06;20.80;;;11.00;;
22849;SDS011;11591;44.792;10.358;2022-12-15T03:20:33;20.42;;;11.13;;
22849;SDS011;11591;44.792;10.358;2022-12-15T03:23:00;22.23;;;11.10;;
22849;SDS011;11591;44.792;10.358;2022-12-15T03:25:26;21.40;;;10.20;;
22849;SDS011;11591;44.792;10.358;2022-12-15T03:27:52;23.38;;;11.35;;
22849;SDS011;11591;44.792;10.358;2022-12-15T03:30:18;22.05;;;10.95;;
22849;SDS011;11591;44.792;10.358;2022-12-15T03:32:45;27.77;;;11.88;;
22849;SDS011;11591;44.792;10.358;2022-12-15T03:35:11;21.45;;;10.75;;
22849;SDS011;11591;44.792;10.358;2022-12-15T03:37:37;22.75;;;11.02;;
22849;SDS011;11591;44.792;10.358;2022-12-15T03:40:04;24.25;;;11.07;;
22849;SDS011;11591;44.792;10.358;2022-12-15T03:42:30;24.42;;;10.95;;
22849;SDS011;11591;44.792;10.358;2022-12-15T03:45:18;22.67;;;10.98;;
22849;SDS011;11591;44.792;10.358;2022-12-15T03:47:46;25.83;;;11.60;;
22849;SDS011;11591;44.792;10.358;2022-12-15T03:50:14;24.60;;;11.27;;
22849;SDS011;11591;44.792;10.358;2022-12-15T03:52:42;28.50;;;11.80;;
22849;SDS011;11591;44.792;10.358;2022-12-15T03:55:08;23.98;;;10.70;;
22849;SDS011;11591;44.792;10.358;2022-12-15T03:57:35;21.50;;;10.70;;
22849;SDS011;11591;44.792;10.358;2022-12-15T04:00:01;21.42;;;10.32;;
22849;SDS011;11591;44.792;10.358;2022-12-15T04:02:37;21.75;;;10.30;;
22849;SDS011;11591;44.792;10.358;2022-12-15T04:05:03;25.25;;;11.70;;
22849;SDS011;11591;44.792;10.358;2022-12-15T04:07:29;23.80;;;12.07;;
22849;SDS011;11591;44.792;10.358;2022-12-15T04:09:55;21.88;;;11.02;;
22849;SDS011;11591;44.792;10.358;2022-12-15T04:12:21;25.40;;;11.63;;
22849;SDS011;11591;44.792;10.358;2022-12-15T04:14:46;24.95;;;10.43;;
22849;SDS011;11591;44.792;10.358;2022-12-15T04:17:12;25.00;;;11.73;;
22849;SDS011;11591;44.792;10.358;2022-12-15T04:19:39;27.45;;;11.30;;
22849;SDS011;11591;44.792;10.358;2022-12-15T04:22:23;21.73;;;10.38;;
22849;SDS011;11591;44.792;10.358;2022-12-15T04:24:49;23.65;;;11.60;;
22849;SDS011;11591;44.792;10.358;2022-12-15T04:27:33;25.50;;;11.45;;
22849;SDS011;11591;44.792;10.358;2022-12-15T04:30:17;22.48;;;10.82;;
22849;SDS011;11591;44.792;10.358;2022-12-15T04:33:03;23.02;;;10.98;;
22849;SDS011;11591;44.792;10.358;2022-12-15T04:35:48;27.88;;;11.13;;
22849;SDS011;11591;44.792;10.358;2022-12-15T04:38:33;23.63;;;10.85;;
22849;SDS011;11591;44.792;10.358;2022-12-15T04:41:18;24.52;;;10.82;;
22849;SDS011;11591;44.792;10.358;2022-12-15T04:44:04;27.48;;;11.13;;
22849;SDS011;11591;44.792;10.358;2022-12-15T04:46:49;27.63;;;11.70;;
22849;SDS011;11591;44.792;10.358;2022-12-15T04:49:33;26.77;;;11.07;;
22849;SDS011;11591;44.792;10.358;2022-12-15T04:52:18;27.10;;;11.82;;
22849;SDS011;11591;44.792;10.358;2022-12-15T04:55:02;25.25;;;11.20;;
22849;SDS011;11591;44.792;10.358;2022-12-15T04:57:47;22.52;;;10.82;;
22849;SDS011;11591;44.792;10.358;2022-12-15T05:00:31;23.00;;;10.82;;
22849;SDS011;11591;44.792;10.358;2022-12-15T05:03:15;25.08;;;11.40;;
22849;SDS011;11591;44.792;10.358;2022-12-15T05:06:00;26.95;;;11.80;;
22849;SDS011;11591;44.792;10.358;2022-12-15T05:08:44;25.45;;;11.68;;
22849;SDS011;11591;44.792;10.358;2022-12-15T05:11:29;29.50;;;12.00;;
22849;SDS011;11591;44.792;10.358;2022-12-15T05:14:13;26.73;;;12.15;;
22849;SDS011;11591;44.792;10.358;2022-12-15T05:16:57;22.73;;;10.50;;
22849;SDS011;11591;44.792;10.358;2022-12-15T05:19:42;24.67;;;11.20;;
22849;SDS011;11591;44.792;10.358;2022-12-15T05:22:26;23.20;;;11.32;;
22849;SDS011;11591;44.792;10.358;2022-12-15T05:25:11;27.48;;;11.65;;
22849;SDS011;11591;44.792;10.358;2022-12-15T05:27:55;27.83;;;11.80;;
22849;SDS011;11591;44.792;10.358;2022-12-15T05:30:39;26.48;;;11.93;;
22849;SDS011;11591;44.792;10.358;2022-12-15T05:33:24;23.30;;;11.07;;
22849;SDS011;11591;44.792;10.358;2022-12-15T05:35:49;29.13;;;12.10;;
22849;SDS011;11591;44.792;10.358;2022-12-15T05:38:15;23.25;;;11.00;;
22849;SDS011;11591;44.792;10.358;2022-12-15T05:40:42;24.23;;;12.10;;
22849;SDS011;11591;44.792;10.358;2022-12-15T05:43:08;26.73;;;12.00;;
22849;SDS011;11591;44.792;10.358;2022-12-15T05:45:34;23.80;;;10.75;;
22849;SDS011;11591;44.792;10.358;2022-12-15T05:47:59;28.33;;;12.50;;
22849;SDS011;11591;44.792;10.358;2022-12-15T05:50:25;22.20;;;10.88;;
22849;SDS011;11591;44.792;10.358;2022-12-15T05:52:51;25.75;;;11.13;;
22849;SDS011;11591;44.792;10.358;2022-12-15T05:55:17;24.20;;;11.68;;
22849;SDS011;11591;44.792;10.358;2022-12-15T05:57:44;24.15;;;11.57;;
22849;SDS011;11591;44.792;10.358;2022-12-15T06:00:19;20.98;;;10.90;;
22849;SDS011;11591;44.792;10.358;2022-12-15T06:02:45;31.80;;;11.93;;
22849;SDS011;11591;44.792;10.358;2022-12-15T06:05:11;22.23;;;11.52;;
22849;SDS011;11591;44.792;10.358;2022-12-15T06:07:36;26.55;;;12.20;;
22849;SDS011;11591;44.792;10.358;2022-12-15T06:10:03;25.45;;;11.93;;
22849;SDS011;11591;44.792;10.358;2022-12-15T06:12:29;26.77;;;12.52;;
22849;SDS011;11591;44.792;10.358;2022-12-15T06:14:55;27.85;;;12.27;;
22849;SDS011;11591;44.792;10.358;2022-12-15T06:17:21;23.23;;;11.52;;
22849;SDS011;11591;44.792;10.358;2022-12-15T06:19:47;23.70;;;11.27;;
22849;SDS011;11591;44.792;10.358;2022-12-15T06:22:13;31.05;;;12.48;;
22849;SDS011;11591;44.792;10.358;2022-12-15T06:24:38;28.15;;;12.25;;
22849;SDS011;11591;44.792;10.358;2022-12-15T06:27:04;25.63;;;11.27;;
22849;SDS011;11591;44.792;10.358;2022-12-15T06:29:30;24.58;;;11.65;;
22849;SDS011;11591;44.792;10.358;2022-12-15T06:31:56;23.55;;;10.85;;
22849;SDS011;11591;44.792;10.358;2022-12-15T06:34:22;26.20;;;11.70;;
22849;SDS011;11591;44.792;10.358;2022-12-15T06:36:48;26.70;;;11.50;;
22849;SDS011;11591;44.792;10.358;2022-12-15T06:39:14;24.15;;;11.68;;
22849;SDS011;11591;44.792;10.358;2022-12-15T06:41:41;27.27;;;12.40;;
22849;SDS011;11591;44.792;10.358;2022-12-15T06:44:09;29.20;;;12.43;;
22849;SDS011;11591;44.792;10.358;2022-12-15T06:46:37;25.90;;;11.90;;
22849;SDS011;11591;44.792;10.358;2022-12-15T06:49:03;28.83;;;12.30;;
22849;SDS011;11591;44.792;10.358;2022-12-15T06:51:29;28.25;;;11.50;;
22849;SDS011;11591;44.792;10.358;2022-12-15T06:53:55;27.73;;;12.30;;
22849;SDS011;11591;44.792;10.358;2022-12-15T06:56:22;30.88;;;12.43;;
22849;SDS011;11591;44.792;10.358;2022-12-15T06:58:50;31.08;;;12.93;;
22849;SDS011;11591;44.792;10.358;2022-12-15T07:01:18;26.92;;;12.52;;
22849;SDS011;11591;44.792;10.358;2022-12-15T07:03:45;26.20;;;11.75;;
22849;SDS011;11591;44.792;10.358;2022-12-15T07:06:12;26.63;;;11.63;;
22849;SDS011;11591;44.792;10.358;2022-12-15T07:08:39;29.38;;;11.77;;
22849;SDS011;11591;44.792;10.358;2022-12-15T07:11:05;25.88;;;11.80;;
22849;SDS011;11591;44.792;10.358;2022-12-15T07:13:32;25.35;;;11.27;;
22849;SDS011;11591;44.792;10.358;2022-12-15T07:15:59;26.70;;;11.93;;
22849;SDS011;11591;44.792;10.358;2022-12-15T07:18:26;31.25;;;11.77;;
22849;SDS011;11591;44.792;10.358;2022-12-15T07:20:52;27.70;;;11.65;;
22849;SDS011;11591;44.792;10.358;2022-12-15T07:23:18;25.92;;;11.70;;
22849;SDS011;11591;44.792;10.358;2022-12-15T07:25:43;26.40;;;11.25;;
22849;SDS011;11591;44.792;10.358;2022-12-15T07:28:09;26.50;;;11.73;;
22849;SDS011;11591;44.792;10.358;2022-12-15T07:30:36;25.08;;;11.00;;
22849;SDS011;11591;44.792;10.358;2022-12-15T07:33:02;29.70;;;12.02;;
22849;SDS011;11591;44.792;10.358;2022-12-15T07:35:28;24.55;;;10.68;;
22849;SDS011;11591;44.792;10.358;2022-12-15T07:37:55;27.13;;;11.25;;
22849;SDS011;11591;44.792;10.358;2022-12-15T07:40:20;26.35;;;11.25;;
22849;SDS011;11591;44.792;10.358;2022-12-15T07:42:46;23.98;;;10.90;;
22849;SDS011;11591;44.792;10.358;2022-12-15T07:45:12;27.00;;;10.68;;
22849;SDS011;11591;44.792;10.358;2022-12-15T07:47:39;25.15;;;11.68;;
22849;SDS011;11591;44.792;10.358;2022-12-15T07:50:05;25.25;;;10.90;;
22849;SDS011;11591;44.792;10.358;2022-12-15T07:52:31;28.55;;;10.57;;
22849;SDS011;11591;44.792;10.358;2022-12-15T07:54:57;24.55;;;10.75;;
22849;SDS011;11591;44.792;10.358;2022-12-15T07:57:23;21.80;;;10.52;;
22849;SDS011;11591;44.792;10.358;2022-12-15T07:59:49;24.48;;;10.95;;
22849;SDS011;11591;44.792;10.358;2022-12-15T08:02:15;24.42;;;10.30;;
22849;SDS011;11591;44.792;10.358;2022-12-15T08:04:41;19.55;;;8.95;;
22849;SDS011;11591;44.792;10.358;2022-12-15T08:07:07;21.48;;;9.50;;
22849;SDS011;11591;44.792;10.358;2022-12-15T08:09:35;24.70;;;10.45;;
22849;SDS011;11591;44.792;10.358;2022-12-15T08:12:01;23.13;;;10.05;;
22849;SDS011;11591;44.792;10.358;2022-12-15T08:14:27;24.23;;;9.77;;
22849;SDS011;11591;44.792;10.358;2022-12-15T08:16:53;24.10;;;10.05;;
22849;SDS011;11591;44.792;10.358;2022-12-15T08:19:19;20.70;;;9.32;;
22849;SDS011;11591;44.792;10.358;2022-12-15T08:21:45;21.75;;;9.80;;
22849;SDS011;11591;44.792;10.358;2022-12-15T08:24:11;20.63;;;9.90;;
22849;SDS011;11591;44.792;10.358;2022-12-15T08:26:38;19.00;;;9.05;;
22849;SDS011;11591;44.792;10.358;2022-12-15T08:29:06;18.88;;;8.80;;
22849;SDS011;11591;44.792;10.358;2022-12-15T08:31:33;24.23;;;9.95;;
22849;SDS011;11591;44.792;10.358;2022-12-15T08:33:59;25.63;;;9.68;;
22849;SDS011;11591;44.792;10.358;2022-12-15T08:36:26;22.63;;;9.88;;
22849;SDS011;11591;44.792;10.358;2022-12-15T08:38:54;22.60;;;9.93;;
22849;SDS011;11591;44.792;10.358;2022-12-15T08:41:22;22.95;;;9.95;;
22849;SDS011;11591;44.792;10.358;2022-12-15T08:43:51;21.63;;;10.13;;
22849;SDS011;11591;44.792;10.358;2022-12-15T08:46:19;23.67;;;11.05;;
22849;SDS011;11591;44.792;10.358;2022-12-15T08:48:47;30.52;;;12.18;;
22849;SDS011;11591;44.792;10.358;2022-12-15T08:51:14;21.92;;;9.80;;
22849;SDS011;11591;44.792;10.358;2022-12-15T08:53:40;20.88;;;10.18;;
22849;SDS011;11591;44.792;10.358;2022-12-15T08:56:10;26.33;;;12.10;;
22849;SDS011;11591;44.792;10.358;2022-12-15T08:58:38;23.65;;;11.45;;
22849;SDS011;11591;44.792;10.358;2022-12-15T09:01:05;24.92;;;10.77;;
22849;SDS011;11591;44.792;10.358;2022-12-15T09:03:33;23.05;;;11.25;;
22849;SDS011;11591;44.792;10.358;2022-12-15T09:06:03;26.55;;;12.30;;
22849;SDS011;11591;44.792;10.358;2022-12-15T09:08:31;26.25;;;12.07;;
22849;SDS011;11591;44.792;10.358;2022-12-15T09:10:57;27.98;;;12.00;;
22849;SDS011;11591;44.792;10.358;2022-12-15T09:13:24;23.05;;;10.48;;
22849;SDS011;11591;44.792;10.358;2022-12-15T09:15:54;23.60;;;11.63;;
22849;SDS011;11591;44.792;10.358;2022-12-15T09:18:21;21.83;;;10.95;;
22849;SDS011;11591;44.792;10.358;2022-12-15T09:20:47;23.05;;;10.45;;
22849;SDS011;11591;44.792;10.358;2022-12-15T09:23:13;25.88;;;11.23;;
22849;SDS011;11591;44.792;10.358;2022-12-15T09:25:38;27.35;;;10.88;;
22849;SDS011;11591;44.792;10.358;2022-12-15T09:28:04;26.88;;;11.60;;
22849;SDS011;11591;44.792;10.358;2022-12-15T09:30:30;30.77;;;13.40;;
22849;SDS011;11591;44.792;10.358;2022-12-15T09:32:56;30.55;;;13.18;;
22849;SDS011;11591;44.792;10.358;2022-12-15T09:35:21;28.00;;;12.80;;
22849;SDS011;11591;44.792;10.358;2022-12-15T09:37:47;31.45;;;13.80;;
22849;SDS011;11591;44.792;10.358;2022-12-15T09:40:13;34.42;;;15.52;;
22849;SDS011;11591;44.792;10.358;2022-12-15T09:42:39;34.65;;;14.65;;
22849;SDS011;11591;44.792;10.358;2022-12-15T09:45:06;36.72;;;14.40;;
22849;SDS011;11591;44.792;10.358;2022-12-15T09:47:50;32.67;;;15.18;;
22849;SDS011;11591;44.792;10.358;2022-12-15T09:50:33;33.55;;;14.38;;
22849;SDS011;11591;44.792;10.358;2022-12-15T09:53:02;35.45;;;16.08;;
22849;SDS011;11591;44.792;10.358;2022-12-15T09:55:33;36.78;;;16.52;;
22849;SDS011;11591;44.792;10.358;2022-12-15T09:57:59;38.03;;;15.80;;
22849;SDS011;11591;44.792;10.358;2022-12-15T10:00:42;41.70;;;19.25;;
22849;SDS011;11591;44.792;10.358;2022-12-15T10:03:28;42.10;;;18.15;;
22849;SDS011;11591;44.792;10.358;2022-12-15T10:06:08;42.13;;;18.30;;
22849;SDS011;11591;44.792;10.358;2022-12-15T10:09:21;43.05;;;18.55;;
22849;SDS011;11591;44.792;10.358;2022-12-15T10:20:12;50.13;;;21.10;;
22849;SDS011;11591;44.792;10.358;2022-12-15T10:22:47;47.22;;;21.92;;
22849;SDS011;11591;44.792;10.358;2022-12-15T10:25:48;51.65;;;22.80;;
22849;SDS011;11591;44.792;10.358;2022-12-15T10:30:43;66.63;;;28.27;;
22849;SDS011;11591;44.792;10.358;2022-12-15T10:33:17;53.70;;;23.98;;
22849;SDS011;11591;44.792;10.358;2022-12-15T10:35:48;50.00;;;22.48;;
22849;SDS011;11591;44.792;10.358;2022-12-15T10:40:58;58.85;;;24.10;;
22849;SDS011;11591;44.792;10.358;2022-12-15T10:46:03;51.13;;;23.00;;
22849;SDS011;11591;44.792;10.358;2022-12-15T10:48:33;54.63;;;22.73;;
22849;SDS011;11591;44.792;10.358;2022-12-15T10:56:23;49.67;;;21.55;;
22849;SDS011;11591;44.792;10.358;2022-12-15T10:58:51;53.30;;;21.90;;
22849;SDS011;11591;44.792;10.358;2022-12-15T11:01:21;51.72;;;22.20;;
22849;SDS011;11591;44.792;10.358;2022-12-15T11:03:49;59.45;;;23.90;;
22849;SDS011;11591;44.792;10.358;2022-12-15T11:06:34;51.35;;;23.25;;
22849;SDS011;11591;44.792;10.358;2022-12-15T11:09:07;51.90;;;23.38;;
22849;SDS011;11591;44.792;10.358;2022-12-15T11:11:52;52.47;;;24.80;;
22849;SDS011;11591;44.792;10.358;2022-12-15T11:14:57;56.42;;;25.55;;
22849;SDS011;11591;44.792;10.358;2022-12-15T11:17:22;69.13;;;29.42;;
22849;SDS011;11591;44.792;10.358;2022-12-15T11:19:53;71.68;;;31.52;;
22849;SDS011;11591;44.792;10.358;2022-12-15T11:22:42;74.45;;;31.35;;
22849;SDS011;11591;44.792;10.358;2022-12-15T11:25:29;69.35;;;30.40;;
22849;SDS011;11591;44.792;10.358;2022-12-15T11:27:59;70.95;;;30.80;;
22849;SDS011;11591;44.792;10.358;2022-12-15T11:30:34;72.32;;;31.35;;
22849;SDS011;11591;44.792;10.358;2022-12-15T11:33:06;84.65;;;33.55;;
22849;SDS011;11591;44.792;10.358;2022-12-15T11:49:35;84.38;;;36.08;;
22849;SDS011;11591;44.792;10.358;2022-12-15T12:00:21;78.05;;;32.58;;
22849;SDS011;11591;44.792;10.358;2022-12-15T12:02:55;75.70;;;33.00;;
22849;SDS011;11591;44.792;10.358;2022-12-15T12:16:09;68.78;;;31.50;;
22849;SDS011;11591;44.792;10.358;2022-12-15T12:18:44;73.47;;;32.45;;
22849;SDS011;11591;44.792;10.358;2022-12-15T12:21:18;74.43;;;31.30;;
22849;SDS011;11591;44.792;10.358;2022-12-15T12:26:42;78.32;;;33.50;;
22849;SDS011;11591;44.792;10.358;2022-12-15T12:36:54;81.90;;;33.75;;
22849;SDS011;11591;44.792;10.358;2022-12-15T12:39:28;75.57;;;32.70;;
22849;SDS011;11591;44.792;10.358;2022-12-15T12:44:35;73.55;;;31.98;;
22849;SDS011;11591;44.792;10.358;2022-12-15T12:47:45;74.53;;;32.40;;
22849;SDS011;11591;44.792;10.358;2022-12-15T12:50:20;77.25;;;33.30;;
22849;SDS011;11591;44.792;10.358;2022-12-15T12:52:46;71.78;;;32.65;;
22849;SDS011;11591;44.792;10.358;2022-12-15T12:55:37;78.93;;;32.95;;
22849;SDS011;11591;44.792;10.358;2022-12-15T13:03:38;77.70;;;34.47;;
22849;SDS011;11591;44.792;10.358;2022-12-15T13:06:54;81.60;;;34.47;;
22849;SDS011;11591;44.792;10.358;2022-12-15T13:09:49;72.75;;;32.13;;
22849;SDS011;11591;44.792;10.358;2022-12-15T13:12:04;79.35;;;33.28;;
22849;SDS011;11591;44.792;10.358;2022-12-15T13:15:10;75.82;;;33.20;;
22849;SDS011;11591;44.792;10.358;2022-12-15T13:17:43;83.10;;;33.97;;
22849;SDS011;11591;44.792;10.358;2022-12-15T13:20:19;82.07;;;34.60;;
22849;SDS011;11591;44.792;10.358;2022-12-15T13:22:47;79.07;;;34.95;;
22849;SDS011;11591;44.792;10.358;2022-12-15T13:27:58;77.88;;;34.88;;
22849;SDS011;11591;44.792;10.358;2022-12-15T13:30:26;78.28;;;35.28;;
22849;SDS011;11591;44.792;10.358;2022-12-15T13:32:53;77.38;;;34.72;;
22849;SDS011;11591;44.792;10.358;2022-12-15T13:35:37;87.95;;;36.33;;
22849;SDS011;11591;44.792;10.358;2022-12-15T13:38:07;84.25;;;36.22;;
22849;SDS011;11591;44.792;10.358;2022-12-15T13:45:52;90.13;;;37.28;;
22849;SDS011;11591;44.792;10.358;2022-12-15T13:51:02;87.38;;;36.72;;
22849;SDS011;11591;44.792;10.358;2022-12-15T13:59:24;79.75;;;34.53;;
22849;SDS011;11591;44.792;10.358;2022-12-15T14:01:51;90.03;;;36.35;;
22849;SDS011;11591;44.792;10.358;2022-12-15T14:04:18;85.97;;;35.42;;
22849;SDS011;11591;44.792;10.358;2022-12-15T14:06:46;92.53;;;36.95;;
22849;SDS011;11591;44.792;10.358;2022-12-15T14:09:13;82.75;;;36.75;;
22849;SDS011;11591;44.792;10.358;2022-12-15T14:11:41;88.30;;;38.20;;
22849;SDS011;11591;44.792;10.358;2022-12-15T14:14:13;87.68;;;37.03;;
22849;SDS011;11591;44.792;10.358;2022-12-15T14:16:44;79.40;;;34.72;;
22849;SDS011;11591;44.792;10.358;2022-12-15T14:19:14;80.05;;;35.83;;
22849;SDS011;11591;44.792;10.358;2022-12-15T14:21:57;75.68;;;33.42;;
22849;SDS011;11591;44.792;10.358;2022-12-15T14:24:30;89.78;;;37.05;;
22849;SDS011;11591;44.792;10.358;2022-12-15T14:26:58;77.30;;;35.28;;
22849;SDS011;11591;44.792;10.358;2022-12-15T14:29:24;81.80;;;36.85;;
22849;SDS011;11591;44.792;10.358;2022-12-15T14:31:52;90.68;;;37.00;;
22849;SDS011;11591;44.792;10.358;2022-12-15T14:34:28;90.32;;;37.00;;
22849;SDS011;11591;44.792;10.358;2022-12-15T14:36:57;86.85;;;37.15;;
22849;SDS011;11591;44.792;10.358;2022-12-15T14:39:29;79.80;;;35.25;;
22849;SDS011;11591;44.792;10.358;2022-12-15T14:42:01;87.47;;;37.33;;
22849;SDS011;11591;44.792;10.358;2022-12-15T14:44:34;79.72;;;36.03;;
22849;SDS011;11591;44.792;10.358;2022-12-15T14:47:03;84.15;;;35.58;;
22849;SDS011;11591;44.792;10.358;2022-12-15T14:49:35;87.28;;;35.88;;
22849;SDS011;11591;44.792;10.358;2022-12-15T14:52:05;87.20;;;36.83;;
22849;SDS011;11591;44.792;10.358;2022-12-15T14:54:49;86.68;;;38.08;;
22849;SDS011;11591;44.792;10.358;2022-12-15T14:59:51;90.05;;;37.95;;
22849;SDS011;11591;44.792;10.358;2022-12-15T15:02:19;81.50;;;35.35;;
22849;SDS011;11591;44.792;10.358;2022-12-15T15:04:54;81.68;;;36.60;;
22849;SDS011;11591;44.792;10.358;2022-12-15T15:07:29;85.25;;;36.33;;
22849;SDS011;11591;44.792;10.358;2022-12-15T15:09:56;83.72;;;36.03;;
22849;SDS011;11591;44.792;10.358;2022-12-15T15:12:24;82.45;;;35.47;;
22849;SDS011;11591;44.792;10.358;2022-12-15T15:15:03;81.57;;;35.88;;
22849;SDS011;11591;44.792;10.358;2022-12-15T15:20:06;86.65;;;36.20;;
22849;SDS011;11591;44.792;10.358;2022-12-15T15:22:46;78.88;;;35.60;;
22849;SDS011;11591;44.792;10.358;2022-12-15T15:25:36;81.15;;;36.03;;
22849;SDS011;11591;44.792;10.358;2022-12-15T15:31:00;84.28;;;37.47;;
22849;SDS011;11591;44.792;10.358;2022-12-15T15:33:46;85.75;;;37.47;;
22849;SDS011;11591;44.792;10.358;2022-12-15T15:36:12;84.13;;;34.50;;
22849;SDS011;11591;44.792;10.358;2022-12-15T15:38:39;86.40;;;35.95;;
22849;SDS011;11591;44.792;10.358;2022-12-15T15:43:38;82.97;;;34.30;;
22849;SDS011;11591;44.792;10.358;2022-12-15T15:46:05;84.93;;;35.83;;
22849;SDS011;11591;44.792;10.358;2022-12-15T15:48:46;87.40;;;35.83;;
22849;SDS011;11591;44.792;10.358;2022-12-15T15:51:16;93.03;;;39.58;;
22849;SDS011;11591;44.792;10.358;2022-12-15T15:53:42;85.97;;;37.95;;
22849;SDS011;11591;44.792;10.358;2022-12-15T15:56:10;86.10;;;36.78;;
22849;SDS011;11591;44.792;10.358;2022-12-15T15:58:38;90.57;;;38.40;;
22849;SDS011;11591;44.792;10.358;2022-12-15T16:01:05;86.22;;;37.13;;
22849;SDS011;11591;44.792;10.358;2022-12-15T16:03:30;82.70;;;37.72;;
22849;SDS011;11591;44.792;10.358;2022-12-15T16:05:56;88.25;;;37.28;;
22849;SDS011;11591;44.792;10.358;2022-12-15T16:08:40;84.10;;;37.13;;
22849;SDS011;11591;44.792;10.358;2022-12-15T16:11:09;90.85;;;36.58;;
22849;SDS011;11591;44.792;10.358;2022-12-15T16:13:55;78.68;;;35.13;;
22849;SDS011;11591;44.792;10.358;2022-12-15T16:16:21;84.07;;;36.78;;
22849;SDS011;11591;44.792;10.358;2022-12-15T16:18:51;78.68;;;35.08;;
22849;SDS011;11591;44.792;10.358;2022-12-15T16:21:17;91.70;;;36.55;;
22849;SDS011;11591;44.792;10.358;2022-12-15T16:23:46;81.82;;;37.30;;
22849;SDS011;11591;44.792;10.358;2022-12-15T16:26:16;80.85;;;37.03;;
22849;SDS011;11591;44.792;10.358;2022-12-15T16:28:55;74.18;;;33.78;;
22849;SDS011;11591;44.792;10.358;2022-12-15T16:31:54;81.72;;;36.40;;
22849;SDS011;11591;44.792;10.358;2022-12-15T16:34:13;78.63;;;36.03;;
22849;SDS011;11591;44.792;10.358;2022-12-15T16:36:44;87.40;;;36.65;;
22849;SDS011;11591;44.792;10.358;2022-12-15T16:41:50;79.13;;;36.17;;
22849;SDS011;11591;44.792;10.358;2022-12-15T16:44:17;83.38;;;36.13;;
22849;SDS011;11591;44.792;10.358;2022-12-15T16:46:43;69.25;;;33.72;;
22849;SDS011;11591;44.792;10.358;2022-12-15T16:49:10;75.13;;;36.00;;